sensor_id;sensor_type;location;lat;lon;timestamp;temperature;humidity
21261;DHT22;10788;47.930;9.766;2023-12-28T00:00:07;4.40;99.90
21261;DHT22;10788;47.930;9.766;2023-12-28T00:02:33;4.40;99.90
21261;DHT22;10788;47.930;9.766;2023-12-28T00:04:59;4.40;99.90
21261;DHT22;10788;47.930;9.766;2023-12-28T00:07:25;4.40;99.90
21261;DHT22;10788;47.930;9.766;2023-12-28T00:09:50;4.40;99.90
21261;DHT22;10788;47.930;9.766;2023-12-28T00:12:16;4.40;99.90
21261;DHT22;10788;47.930;9.766;2023-12-28T00:14:42;4.40;99.90
21261;DHT22;10788;47.930;9.766;2023-12-28T00:17:07;4.40;99.90
21261;DHT22;10788;47.930;9.766;2023-12-28T00:19:34;4.30;99.90
21261;DHT22;10788;47.930;9.766;2023-12-28T00:22:00;4.40;99.90
21261;DHT22;10788;47.930;9.766;2023-12-28T00:24:25;4.40;99.90
21261;DHT22;10788;47.930;9.766;2023-12-28T00:26:51;4.40;99.90
21261;DHT22;10788;47.930;9.766;2023-12-28T00:29:16;4.30;99.90
21261;DHT22;10788;47.930;9.766;2023-12-28T00:31:42;4.40;99.90
21261;DHT22;10788;47.930;9.766;2023-12-28T00:34:08;4.40;99.90
21261;DHT22;10788;47.930;9.766;2023-12-28T00:36:33;4.40;99.90
21261;DHT22;10788;47.930;9.766;2023-12-28T00:38:59;4.30;99.90
21261;DHT22;10788;47.930;9.766;2023-12-28T00:41:25;4.30;99.90
21261;DHT22;10788;47.930;9.766;2023-12-28T00:43:51;4.20;99.90
21261;DHT22;10788;47.930;9.766;2023-12-28T00:46:16;4.10;99.90
21261;DHT22;10788;47.930;9.766;2023-12-28T00:48:42;4.10;99.90
21261;DHT22;10788;47.930;9.766;2023-12-28T00:51:08;4.10;99.90
21261;DHT22;10788;47.930;9.766;2023-12-28T00:53:33;4.20;99.90
21261;DHT22;10788;47.930;9.766;2023-12-28T00:55:59;4.00;99.90
21261;DHT22;10788;47.930;9.766;2023-12-28T00:58:25;4.00;99.90
21261;DHT22;10788;47.930;9.766;2023-12-28T01:00:50;4.00;99.90
21261;DHT22;10788;47.930;9.766;2023-12-28T01:03:19;4.00;99.90
21261;DHT22;10788;47.930;9.766;2023-12-28T01:05:45;3.90;99.90
21261;DHT22;10788;47.930;9.766;2023-12-28T01:08:13;3.80;99.90
21261;DHT22;10788;47.930;9.766;2023-12-28T01:10:38;3.80;99.90
21261;DHT22;10788;47.930;9.766;2023-12-28T01:13:04;3.80;99.90
21261;DHT22;10788;47.930;9.766;2023-12-28T01:15:30;3.80;99.90
21261;DHT22;10788;47.930;9.766;2023-12-28T01:17:56;3.80;99.90
21261;DHT22;10788;47.930;9.766;2023-12-28T01:20:22;3.80;99.90
21261;DHT22;10788;47.930;9.766;2023-12-28T01:22:47;3.80;99.90
21261;DHT22;10788;47.930;9.766;2023-12-28T01:25:15;3.80;99.90
21261;DHT22;10788;47.930;9.766;2023-12-28T01:27:41;3.80;99.90
21261;DHT22;10788;47.930;9.766;2023-12-28T01:30:07;3.70;99.90
21261;DHT22;10788;47.930;9.766;2023-12-28T01:32:32;3.80;99.90
21261;DHT22;10788;47.930;9.766;2023-12-28T01:34:58;3.70;99.90
21261;DHT22;10788;47.930;9.766;2023-12-28T01:37:24;3.70;99.90
21261;DHT22;10788;47.930;9.766;2023-12-28T01:39:49;3.70;99.90
21261;DHT22;10788;47.930;9.766;2023-12-28T01:42:15;3.70;99.90
21261;DHT22;10788;47.930;9.766;2023-12-28T01:44:41;3.60;99.90
21261;DHT22;10788;47.930;9.766;2023-12-28T01:47:07;3.60;99.90
21261;DHT22;10788;47.930;9.766;2023-12-28T01:49:33;3.60;99.90
21261;DHT22;10788;47.930;9.766;2023-12-28T01:52:01;3.60;99.90
21261;DHT22;10788;47.930;9.766;2023-12-28T01:54:27;3.60;99.90
21261;DHT22;10788;47.930;9.766;2023-12-28T01:56:53;3.60;99.90
21261;DHT22;10788;47.930;9.766;2023-12-28T01:59:19;3.60;99.90
21261;DHT22;10788;47.930;9.766;2023-12-28T02:01:44;3.60;99.90
21261;DHT22;10788;47.930;9.766;2023-12-28T02:04:11;3.70;99.90
21261;DHT22;10788;47.930;9.766;2023-12-28T02:06:37;3.70;99.90
21261;DHT22;10788;47.930;9.766;2023-12-28T02:09:03;3.80;99.90
21261;DHT22;10788;47.930;9.766;2023-12-28T02:11:28;3.80;99.90
21261;DHT22;10788;47.930;9.766;2023-12-28T02:13:54;3.80;99.90
21261;DHT22;10788;47.930;9.766;2023-12-28T02:16:35;3.70;99.90
21261;DHT22;10788;47.930;9.766;2023-12-28T02:19:07;3.70;99.90
21261;DHT22;10788;47.930;9.766;2023-12-28T02:21:39;3.70;99.90
21261;DHT22;10788;47.930;9.766;2023-12-28T02:24:05;3.70;99.90
21261;DHT22;10788;47.930;9.766;2023-12-28T02:26:31;3.80;99.90
21261;DHT22;10788;47.930;9.766;2023-12-28T02:28:57;3.80;99.90
21261;DHT22;10788;47.930;9.766;2023-12-28T02:31:30;3.90;99.90
21261;DHT22;10788;47.930;9.766;2023-12-28T02:34:04;4.00;99.90
21261;DHT22;10788;47.930;9.766;2023-12-28T02:36:33;4.10;99.90
21261;DHT22;10788;47.930;9.766;2023-12-28T02:39:00;4.10;99.90
21261;DHT22;10788;47.930;9.766;2023-12-28T02:41:29;4.10;99.90
21261;DHT22;10788;47.930;9.766;2023-12-28T02:43:55;4.10;99.90
21261;DHT22;10788;47.930;9.766;2023-12-28T02:46:21;4.10;99.90
21261;DHT22;10788;47.930;9.766;2023-12-28T02:48:47;4.10;99.90
21261;DHT22;10788;47.930;9.766;2023-12-28T02:51:12;4.10;99.90
21261;DHT22;10788;47.930;9.766;2023-12-28T02:53:38;4.10;99.90
21261;DHT22;10788;47.930;9.766;2023-12-28T02:56:04;4.10;99.90
21261;DHT22;10788;47.930;9.766;2023-12-28T02:58:30;4.10;99.90
21261;DHT22;10788;47.930;9.766;2023-12-28T03:00:55;4.10;99.90
21261;DHT22;10788;47.930;9.766;2023-12-28T03:03:21;4.10;99.90
21261;DHT22;10788;47.930;9.766;2023-12-28T03:05:46;4.10;99.90
21261;DHT22;10788;47.930;9.766;2023-12-28T03:08:12;4.30;99.90
21261;DHT22;10788;47.930;9.766;2023-12-28T03:10:39;4.20;99.90
21261;DHT22;10788;47.930;9.766;2023-12-28T03:13:04;4.20;99.90
21261;DHT22;10788;47.930;9.766;2023-12-28T03:15:30;4.20;99.90
21261;DHT22;10788;47.930;9.766;2023-12-28T03:17:56;4.20;99.90
21261;DHT22;10788;47.930;9.766;2023-12-28T03:20:21;4.20;99.90
21261;DHT22;10788;47.930;9.766;2023-12-28T03:22:47;4.30;99.90
21261;DHT22;10788;47.930;9.766;2023-12-28T03:25:14;4.30;99.90
21261;DHT22;10788;47.930;9.766;2023-12-28T03:27:39;4.20;99.90
21261;DHT22;10788;47.930;9.766;2023-12-28T03:30:06;4.20;99.90
21261;DHT22;10788;47.930;9.766;2023-12-28T03:32:31;4.20;99.90
21261;DHT22;10788;47.930;9.766;2023-12-28T03:34:57;4.20;99.90
21261;DHT22;10788;47.930;9.766;2023-12-28T03:37:23;4.20;99.90
21261;DHT22;10788;47.930;9.766;2023-12-28T03:39:48;4.20;99.90
21261;DHT22;10788;47.930;9.766;2023-12-28T03:42:14;4.20;99.90
21261;DHT22;10788;47.930;9.766;2023-12-28T03:44:40;4.20;99.90
21261;DHT22;10788;47.930;9.766;2023-12-28T03:47:06;4.20;99.90
21261;DHT22;10788;47.930;9.766;2023-12-28T03:49:31;4.20;99.90
21261;DHT22;10788;47.930;9.766;2023-12-28T03:51:57;4.30;99.90
21261;DHT22;10788;47.930;9.766;2023-12-28T03:54:23;4.30;99.90
21261;DHT22;10788;47.930;9.766;2023-12-28T03:56:48;4.30;99.90
21261;DHT22;10788;47.930;9.766;2023-12-28T03:59:14;4.30;99.90
21261;DHT22;10788;47.930;9.766;2023-12-28T04:01:40;4.50;99.90
21261;DHT22;10788;47.930;9.766;2023-12-28T04:04:06;4.50;99.90
21261;DHT22;10788;47.930;9.766;2023-12-28T04:06:32;4.50;99.90
21261;DHT22;10788;47.930;9.766;2023-12-28T04:08:57;4.50;99.90
21261;DHT22;10788;47.930;9.766;2023-12-28T04:11:23;4.50;99.90
21261;DHT22;10788;47.930;9.766;2023-12-28T04:13:49;4.50;99.90
21261;DHT22;10788;47.930;9.766;2023-12-28T04:16:15;4.60;99.90
21261;DHT22;10788;47.930;9.766;2023-12-28T04:18:42;4.70;99.90
21261;DHT22;10788;47.930;9.766;2023-12-28T04:21:12;4.70;99.90
21261;DHT22;10788;47.930;9.766;2023-12-28T04:23:38;4.70;99.90
21261;DHT22;10788;47.930;9.766;2023-12-28T04:26:04;4.80;99.90
21261;DHT22;10788;47.930;9.766;2023-12-28T04:28:30;4.90;99.90
21261;DHT22;10788;47.930;9.766;2023-12-28T04:30:56;4.90;99.90
21261;DHT22;10788;47.930;9.766;2023-12-28T04:33:22;5.00;99.90
21261;DHT22;10788;47.930;9.766;2023-12-28T04:35:48;5.00;99.90
21261;DHT22;10788;47.930;9.766;2023-12-28T04:38:14;5.10;99.90
21261;DHT22;10788;47.930;9.766;2023-12-28T04:40:40;5.10;99.90
21261;DHT22;10788;47.930;9.766;2023-12-28T04:43:06;5.10;99.90
21261;DHT22;10788;47.930;9.766;2023-12-28T04:45:32;5.00;99.90
21261;DHT22;10788;47.930;9.766;2023-12-28T04:47:58;5.10;99.90
21261;DHT22;10788;47.930;9.766;2023-12-28T04:50:24;5.10;99.90
21261;DHT22;10788;47.930;9.766;2023-12-28T04:52:50;5.00;99.90
21261;DHT22;10788;47.930;9.766;2023-12-28T04:55:15;5.00;99.90
21261;DHT22;10788;47.930;9.766;2023-12-28T04:57:42;5.00;99.90
21261;DHT22;10788;47.930;9.766;2023-12-28T05:00:08;4.90;99.90
21261;DHT22;10788;47.930;9.766;2023-12-28T05:02:34;4.90;99.90
21261;DHT22;10788;47.930;9.766;2023-12-28T05:05:00;4.90;99.90
21261;DHT22;10788;47.930;9.766;2023-12-28T05:07:25;4.90;99.90
21261;DHT22;10788;47.930;9.766;2023-12-28T05:09:51;4.90;99.90
21261;DHT22;10788;47.930;9.766;2023-12-28T05:12:17;4.80;99.90
21261;DHT22;10788;47.930;9.766;2023-12-28T05:14:43;4.80;99.90
21261;DHT22;10788;47.930;9.766;2023-12-28T05:17:08;4.80;99.90
21261;DHT22;10788;47.930;9.766;2023-12-28T05:19:34;4.80;99.90
21261;DHT22;10788;47.930;9.766;2023-12-28T05:22:00;4.80;99.90
21261;DHT22;10788;47.930;9.766;2023-12-28T05:24:29;4.80;99.90
21261;DHT22;10788;47.930;9.766;2023-12-28T05:26:55;4.80;99.90
21261;DHT22;10788;47.930;9.766;2023-12-28T05:29:21;4.70;99.90
21261;DHT22;10788;47.930;9.766;2023-12-28T05:31:46;4.70;99.90
21261;DHT22;10788;47.930;9.766;2023-12-28T05:34:12;4.60;99.90
21261;DHT22;10788;47.930;9.766;2023-12-28T05:36:38;4.60;99.90
21261;DHT22;10788;47.930;9.766;2023-12-28T05:39:06;4.60;99.90
21261;DHT22;10788;47.930;9.766;2023-12-28T05:41:31;4.60;99.90
21261;DHT22;10788;47.930;9.766;2023-12-28T05:43:57;4.60;99.90
21261;DHT22;10788;47.930;9.766;2023-12-28T05:46:23;4.60;99.90
21261;DHT22;10788;47.930;9.766;2023-12-28T05:48:48;4.70;99.90
21261;DHT22;10788;47.930;9.766;2023-12-28T05:51:14;4.90;99.90
21261;DHT22;10788;47.930;9.766;2023-12-28T05:53:39;4.90;99.90
21261;DHT22;10788;47.930;9.766;2023-12-28T05:56:05;5.00;99.90
21261;DHT22;10788;47.930;9.766;2023-12-28T05:58:31;5.00;99.90
21261;DHT22;10788;47.930;9.766;2023-12-28T06:00:57;5.00;99.90
21261;DHT22;10788;47.930;9.766;2023-12-28T06:03:22;4.90;99.90
21261;DHT22;10788;47.930;9.766;2023-12-28T06:05:53;4.80;99.90
21261;DHT22;10788;47.930;9.766;2023-12-28T06:08:19;4.80;99.90
21261;DHT22;10788;47.930;9.766;2023-12-28T06:10:45;4.80;99.90
21261;DHT22;10788;47.930;9.766;2023-12-28T06:13:10;4.70;99.90
21261;DHT22;10788;47.930;9.766;2023-12-28T06:15:36;4.80;99.90
21261;DHT22;10788;47.930;9.766;2023-12-28T06:18:02;4.80;99.90
21261;DHT22;10788;47.930;9.766;2023-12-28T06:20:28;4.80;99.90
21261;DHT22;10788;47.930;9.766;2023-12-28T06:22:54;4.80;99.90
21261;DHT22;10788;47.930;9.766;2023-12-28T06:25:19;4.80;99.90
21261;DHT22;10788;47.930;9.766;2023-12-28T06:27:45;4.80;99.90
21261;DHT22;10788;47.930;9.766;2023-12-28T06:30:11;4.70;99.90
21261;DHT22;10788;47.930;9.766;2023-12-28T06:32:37;4.80;99.90
21261;DHT22;10788;47.930;9.766;2023-12-28T06:35:03;4.90;99.90
21261;DHT22;10788;47.930;9.766;2023-12-28T06:37:28;4.80;99.90
21261;DHT22;10788;47.930;9.766;2023-12-28T06:39:54;4.80;99.90
21261;DHT22;10788;47.930;9.766;2023-12-28T06:42:20;4.80;99.90
21261;DHT22;10788;47.930;9.766;2023-12-28T06:44:45;4.80;99.90
21261;DHT22;10788;47.930;9.766;2023-12-28T06:47:11;4.80;99.90
21261;DHT22;10788;47.930;9.766;2023-12-28T06:49:36;4.70;99.90
21261;DHT22;10788;47.930;9.766;2023-12-28T06:52:02;4.70;99.90
21261;DHT22;10788;47.930;9.766;2023-12-28T06:54:28;4.80;99.90
21261;DHT22;10788;47.930;9.766;2023-12-28T06:56:53;4.80;99.90
21261;DHT22;10788;47.930;9.766;2023-12-28T06:59:19;4.80;99.90
21261;DHT22;10788;47.930;9.766;2023-12-28T07:01:45;4.90;99.90
21261;DHT22;10788;47.930;9.766;2023-12-28T07:04:11;4.90;99.90
21261;DHT22;10788;47.930;9.766;2023-12-28T07:06:37;5.00;99.90
21261;DHT22;10788;47.930;9.766;2023-12-28T07:09:03;5.00;99.90
21261;DHT22;10788;47.930;9.766;2023-12-28T07:11:30;5.00;99.90
21261;DHT22;10788;47.930;9.766;2023-12-28T07:13:55;5.00;99.90
21261;DHT22;10788;47.930;9.766;2023-12-28T07:16:21;4.90;99.90
21261;DHT22;10788;47.930;9.766;2023-12-28T07:18:47;4.90;99.90
21261;DHT22;10788;47.930;9.766;2023-12-28T07:21:12;4.90;99.90
21261;DHT22;10788;47.930;9.766;2023-12-28T07:23:38;5.00;99.90
21261;DHT22;10788;47.930;9.766;2023-12-28T07:26:04;5.00;99.90
21261;DHT22;10788;47.930;9.766;2023-12-28T07:28:30;5.00;99.90
21261;DHT22;10788;47.930;9.766;2023-12-28T07:30:55;5.00;99.90
21261;DHT22;10788;47.930;9.766;2023-12-28T07:33:21;4.90;99.90
21261;DHT22;10788;47.930;9.766;2023-12-28T07:35:47;4.90;99.90
21261;DHT22;10788;47.930;9.766;2023-12-28T07:38:13;4.90;99.90
21261;DHT22;10788;47.930;9.766;2023-12-28T07:40:38;4.80;99.90
21261;DHT22;10788;47.930;9.766;2023-12-28T07:43:05;4.70;99.90
21261;DHT22;10788;47.930;9.766;2023-12-28T07:45:31;4.70;99.90
21261;DHT22;10788;47.930;9.766;2023-12-28T07:48:00;4.60;99.90
21261;DHT22;10788;47.930;9.766;2023-12-28T07:50:26;4.50;99.90
21261;DHT22;10788;47.930;9.766;2023-12-28T07:52:52;4.50;99.90
21261;DHT22;10788;47.930;9.766;2023-12-28T07:55:18;4.50;99.90
21261;DHT22;10788;47.930;9.766;2023-12-28T07:57:43;4.40;99.90
21261;DHT22;10788;47.930;9.766;2023-12-28T08:00:09;4.50;99.90
21261;DHT22;10788;47.930;9.766;2023-12-28T08:02:35;4.50;99.90
21261;DHT22;10788;47.930;9.766;2023-12-28T08:05:01;4.50;99.90
21261;DHT22;10788;47.930;9.766;2023-12-28T08:07:27;4.50;99.90
21261;DHT22;10788;47.930;9.766;2023-12-28T08:09:52;4.50;99.90
21261;DHT22;10788;47.930;9.766;2023-12-28T08:12:19;4.50;99.90
21261;DHT22;10788;47.930;9.766;2023-12-28T08:14:46;4.50;99.90
21261;DHT22;10788;47.930;9.766;2023-12-28T08:17:12;4.60;99.90
21261;DHT22;10788;47.930;9.766;2023-12-28T08:19:37;4.70;99.90
21261;DHT22;10788;47.930;9.766;2023-12-28T08:22:03;4.70;99.90
21261;DHT22;10788;47.930;9.766;2023-12-28T08:24:29;4.90;99.90
21261;DHT22;10788;47.930;9.766;2023-12-28T08:26:55;4.90;99.90
21261;DHT22;10788;47.930;9.766;2023-12-28T08:29:24;5.00;99.90
21261;DHT22;10788;47.930;9.766;2023-12-28T08:31:50;5.10;99.90
21261;DHT22;10788;47.930;9.766;2023-12-28T08:34:16;5.10;99.90
21261;DHT22;10788;47.930;9.766;2023-12-28T08:36:41;5.10;99.90
21261;DHT22;10788;47.930;9.766;2023-12-28T08:39:07;5.10;99.90
21261;DHT22;10788;47.930;9.766;2023-12-28T08:41:33;5.20;99.90
21261;DHT22;10788;47.930;9.766;2023-12-28T08:43:59;5.20;99.90
21261;DHT22;10788;47.930;9.766;2023-12-28T08:46:25;5.30;99.90
21261;DHT22;10788;47.930;9.766;2023-12-28T08:48:51;5.40;99.90
21261;DHT22;10788;47.930;9.766;2023-12-28T08:51:16;5.50;99.90
21261;DHT22;10788;47.930;9.766;2023-12-28T08:53:42;5.50;99.90
21261;DHT22;10788;47.930;9.766;2023-12-28T08:56:17;5.60;99.90
21261;DHT22;10788;47.930;9.766;2023-12-28T08:58:44;5.60;99.90
21261;DHT22;10788;47.930;9.766;2023-12-28T09:01:16;5.60;99.90
21261;DHT22;10788;47.930;9.766;2023-12-28T09:03:42;5.70;99.90
21261;DHT22;10788;47.930;9.766;2023-12-28T09:06:08;5.70;99.90
21261;DHT22;10788;47.930;9.766;2023-12-28T09:08:34;5.70;99.90
21261;DHT22;10788;47.930;9.766;2023-12-28T09:10:59;5.80;99.90
21261;DHT22;10788;47.930;9.766;2023-12-28T09:13:25;5.90;99.90
21261;DHT22;10788;47.930;9.766;2023-12-28T09:15:51;6.00;99.90
21261;DHT22;10788;47.930;9.766;2023-12-28T09:18:16;6.00;99.90
21261;DHT22;10788;47.930;9.766;2023-12-28T09:20:42;6.20;99.90
21261;DHT22;10788;47.930;9.766;2023-12-28T09:23:08;6.20;99.90
21261;DHT22;10788;47.930;9.766;2023-12-28T09:25:36;6.30;99.90
21261;DHT22;10788;47.930;9.766;2023-12-28T09:28:04;6.30;99.90
21261;DHT22;10788;47.930;9.766;2023-12-28T09:30:30;6.40;99.90
21261;DHT22;10788;47.930;9.766;2023-12-28T09:32:55;6.40;99.90
21261;DHT22;10788;47.930;9.766;2023-12-28T09:35:21;6.40;99.90
21261;DHT22;10788;47.930;9.766;2023-12-28T09:37:47;6.40;99.90
21261;DHT22;10788;47.930;9.766;2023-12-28T09:40:14;6.50;99.90
21261;DHT22;10788;47.930;9.766;2023-12-28T09:42:51;6.70;99.90
21261;DHT22;10788;47.930;9.766;2023-12-28T09:45:19;6.80;99.90
21261;DHT22;10788;47.930;9.766;2023-12-28T09:47:46;6.80;99.90
21261;DHT22;10788;47.930;9.766;2023-12-28T09:50:17;6.90;99.90
21261;DHT22;10788;47.930;9.766;2023-12-28T09:52:43;7.10;99.90
21261;DHT22;10788;47.930;9.766;2023-12-28T09:55:09;7.30;99.90
21261;DHT22;10788;47.930;9.766;2023-12-28T09:57:35;7.40;99.90
21261;DHT22;10788;47.930;9.766;2023-12-28T10:00:02;7.60;99.90
21261;DHT22;10788;47.930;9.766;2023-12-28T10:02:28;7.60;99.90
21261;DHT22;10788;47.930;9.766;2023-12-28T10:04:55;7.80;99.90
21261;DHT22;10788;47.930;9.766;2023-12-28T10:07:21;7.80;99.90
21261;DHT22;10788;47.930;9.766;2023-12-28T10:09:46;7.90;99.90
21261;DHT22;10788;47.930;9.766;2023-12-28T10:12:12;7.90;99.90
21261;DHT22;10788;47.930;9.766;2023-12-28T10:14:38;7.90;99.90
21261;DHT22;10788;47.930;9.766;2023-12-28T10:17:04;8.00;99.90
21261;DHT22;10788;47.930;9.766;2023-12-28T10:19:30;8.10;99.90
21261;DHT22;10788;47.930;9.766;2023-12-28T10:21:55;8.10;99.90
21261;DHT22;10788;47.930;9.766;2023-12-28T10:24:22;8.10;99.90
21261;DHT22;10788;47.930;9.766;2023-12-28T10:26:47;8.10;99.90
21261;DHT22;10788;47.930;9.766;2023-12-28T10:29:13;8.10;99.90
21261;DHT22;10788;47.930;9.766;2023-12-28T10:31:42;8.10;99.90
21261;DHT22;10788;47.930;9.766;2023-12-28T10:34:08;8.00;99.90
21261;DHT22;10788;47.930;9.766;2023-12-28T10:36:34;7.90;99.90
21261;DHT22;10788;47.930;9.766;2023-12-28T10:39:03;8.00;99.90
21261;DHT22;10788;47.930;9.766;2023-12-28T10:41:30;7.90;99.90
21261;DHT22;10788;47.930;9.766;2023-12-28T10:44:05;7.90;99.90
21261;DHT22;10788;47.930;9.766;2023-12-28T10:46:32;8.00;99.90
21261;DHT22;10788;47.930;9.766;2023-12-28T10:49:02;8.00;99.90
21261;DHT22;10788;47.930;9.766;2023-12-28T10:51:30;8.00;99.90
21261;DHT22;10788;47.930;9.766;2023-12-28T10:54:47;7.90;99.90
21261;DHT22;10788;47.930;9.766;2023-12-28T11:02:28;7.80;99.90
21261;DHT22;10788;47.930;9.766;2023-12-28T11:04:55;7.80;99.90
21261;DHT22;10788;47.930;9.766;2023-12-28T11:07:21;7.70;99.90
21261;DHT22;10788;47.930;9.766;2023-12-28T11:09:48;7.70;99.90
21261;DHT22;10788;47.930;9.766;2023-12-28T11:12:16;7.70;99.90
21261;DHT22;10788;47.930;9.766;2023-12-28T11:14:44;7.70;99.90
21261;DHT22;10788;47.930;9.766;2023-12-28T11:17:10;7.70;99.90
21261;DHT22;10788;47.930;9.766;2023-12-28T11:19:37;7.70;99.90
21261;DHT22;10788;47.930;9.766;2023-12-28T11:22:04;7.80;99.90
21261;DHT22;10788;47.930;9.766;2023-12-28T11:24:31;7.80;99.90
21261;DHT22;10788;47.930;9.766;2023-12-28T11:26:58;7.80;99.90
21261;DHT22;10788;47.930;9.766;2023-12-28T11:29:24;7.70;99.90
21261;DHT22;10788;47.930;9.766;2023-12-28T11:31:54;7.70;99.90
21261;DHT22;10788;47.930;9.766;2023-12-28T11:34:27;7.70;99.90
21261;DHT22;10788;47.930;9.766;2023-12-28T11:36:55;7.80;99.90
21261;DHT22;10788;47.930;9.766;2023-12-28T11:39:33;7.80;99.90
21261;DHT22;10788;47.930;9.766;2023-12-28T11:42:04;7.90;99.90
21261;DHT22;10788;47.930;9.766;2023-12-28T11:44:31;7.80;99.90
21261;DHT22;10788;47.930;9.766;2023-12-28T11:46:57;7.80;99.90
21261;DHT22;10788;47.930;9.766;2023-12-28T11:49:26;7.80;99.90
21261;DHT22;10788;47.930;9.766;2023-12-28T11:51:58;7.90;99.90
21261;DHT22;10788;47.930;9.766;2023-12-28T11:54:25;7.90;99.90
21261;DHT22;10788;47.930;9.766;2023-12-28T11:56:51;7.90;99.90
21261;DHT22;10788;47.930;9.766;2023-12-28T11:59:19;7.90;99.90
21261;DHT22;10788;47.930;9.766;2023-12-28T12:01:50;7.90;99.90
21261;DHT22;10788;47.930;9.766;2023-12-28T12:04:17;7.90;99.90
21261;DHT22;10788;47.930;9.766;2023-12-28T12:06:42;7.90;99.90
21261;DHT22;10788;47.930;9.766;2023-12-28T12:09:11;7.90;99.90
21261;DHT22;10788;47.930;9.766;2023-12-28T12:11:36;7.90;99.90
21261;DHT22;10788;47.930;9.766;2023-12-28T12:14:03;7.90;99.90
21261;DHT22;10788;47.930;9.766;2023-12-28T12:16:35;8.00;99.90
21261;DHT22;10788;47.930;9.766;2023-12-28T12:19:01;8.00;99.90
21261;DHT22;10788;47.930;9.766;2023-12-28T12:21:27;8.10;99.90
21261;DHT22;10788;47.930;9.766;2023-12-28T12:23:54;8.00;99.90
21261;DHT22;10788;47.930;9.766;2023-12-28T12:26:20;8.00;99.90
21261;DHT22;10788;47.930;9.766;2023-12-28T12:28:47;8.00;99.90
21261;DHT22;10788;47.930;9.766;2023-12-28T12:31:14;8.00;99.90
21261;DHT22;10788;47.930;9.766;2023-12-28T12:33:40;7.90;99.90
21261;DHT22;10788;47.930;9.766;2023-12-28T12:36:06;7.90;99.90
21261;DHT22;10788;47.930;9.766;2023-12-28T12:38:33;7.90;99.90
21261;DHT22;10788;47.930;9.766;2023-12-28T12:40:59;8.00;99.90
21261;DHT22;10788;47.930;9.766;2023-12-28T12:43:25;7.90;99.90
21261;DHT22;10788;47.930;9.766;2023-12-28T12:45:52;7.90;99.90
21261;DHT22;10788;47.930;9.766;2023-12-28T12:48:18;7.90;99.90
21261;DHT22;10788;47.930;9.766;2023-12-28T12:50:44;7.90;99.90
21261;DHT22;10788;47.930;9.766;2023-12-28T12:53:10;7.80;99.90
21261;DHT22;10788;47.930;9.766;2023-12-28T12:55:37;7.80;99.90
21261;DHT22;10788;47.930;9.766;2023-12-28T12:58:09;7.80;99.90
21261;DHT22;10788;47.930;9.766;2023-12-28T13:00:35;7.80;99.90
21261;DHT22;10788;47.930;9.766;2023-12-28T13:03:01;7.70;99.90
21261;DHT22;10788;47.930;9.766;2023-12-28T13:05:27;7.70;99.90
21261;DHT22;10788;47.930;9.766;2023-12-28T13:07:53;7.70;99.90
21261;DHT22;10788;47.930;9.766;2023-12-28T13:10:20;7.70;99.90
21261;DHT22;10788;47.930;9.766;2023-12-28T13:12:46;7.70;99.90
21261;DHT22;10788;47.930;9.766;2023-12-28T13:15:11;7.70;99.90
21261;DHT22;10788;47.930;9.766;2023-12-28T13:17:37;7.80;99.90
21261;DHT22;10788;47.930;9.766;2023-12-28T13:20:04;7.70;99.90
21261;DHT22;10788;47.930;9.766;2023-12-28T13:22:32;7.80;99.90
21261;DHT22;10788;47.930;9.766;2023-12-28T13:24:58;7.70;99.90
21261;DHT22;10788;47.930;9.766;2023-12-28T13:27:24;7.70;99.90
21261;DHT22;10788;47.930;9.766;2023-12-28T13:29:49;7.60;99.90
21261;DHT22;10788;47.930;9.766;2023-12-28T13:32:15;7.70;99.90
21261;DHT22;10788;47.930;9.766;2023-12-28T13:34:41;7.60;99.90
21261;DHT22;10788;47.930;9.766;2023-12-28T13:37:07;7.60;99.90
21261;DHT22;10788;47.930;9.766;2023-12-28T13:39:32;7.60;99.90
21261;DHT22;10788;47.930;9.766;2023-12-28T13:42:05;7.60;99.90
21261;DHT22;10788;47.930;9.766;2023-12-28T13:44:31;7.60;99.90
21261;DHT22;10788;47.930;9.766;2023-12-28T13:46:56;7.60;99.90
21261;DHT22;10788;47.930;9.766;2023-12-28T13:49:22;7.60;99.90
21261;DHT22;10788;47.930;9.766;2023-12-28T13:51:47;7.60;99.90
21261;DHT22;10788;47.930;9.766;2023-12-28T13:54:13;7.60;99.90
21261;DHT22;10788;47.930;9.766;2023-12-28T13:56:39;7.60;99.90
21261;DHT22;10788;47.930;9.766;2023-12-28T13:59:04;7.70;99.90
21261;DHT22;10788;47.930;9.766;2023-12-28T14:01:30;7.70;99.90
21261;DHT22;10788;47.930;9.766;2023-12-28T14:03:56;7.70;99.90
21261;DHT22;10788;47.930;9.766;2023-12-28T14:06:22;7.60;99.90
21261;DHT22;10788;47.930;9.766;2023-12-28T14:08:47;7.60;99.90
21261;DHT22;10788;47.930;9.766;2023-12-28T14:11:13;7.50;99.90
21261;DHT22;10788;47.930;9.766;2023-12-28T14:13:39;7.50;99.90
21261;DHT22;10788;47.930;9.766;2023-12-28T14:16:04;7.40;99.90
21261;DHT22;10788;47.930;9.766;2023-12-28T14:18:30;7.40;99.90
21261;DHT22;10788;47.930;9.766;2023-12-28T14:20:56;7.30;99.90
21261;DHT22;10788;47.930;9.766;2023-12-28T14:23:22;7.20;99.90
21261;DHT22;10788;47.930;9.766;2023-12-28T14:25:48;7.10;99.90
21261;DHT22;10788;47.930;9.766;2023-12-28T14:28:21;7.00;99.90
21261;DHT22;10788;47.930;9.766;2023-12-28T14:30:49;7.00;99.90
21261;DHT22;10788;47.930;9.766;2023-12-28T14:33:18;6.90;99.90
21261;DHT22;10788;47.930;9.766;2023-12-28T14:35:44;7.00;99.90
21261;DHT22;10788;47.930;9.766;2023-12-28T14:38:10;6.90;99.90
21261;DHT22;10788;47.930;9.766;2023-12-28T14:40:36;6.90;99.90
21261;DHT22;10788;47.930;9.766;2023-12-28T14:43:01;6.90;99.90
21261;DHT22;10788;47.930;9.766;2023-12-28T14:45:27;6.80;99.90
21261;DHT22;10788;47.930;9.766;2023-12-28T14:47:53;6.80;99.90
21261;DHT22;10788;47.930;9.766;2023-12-28T14:50:18;6.80;99.90
21261;DHT22;10788;47.930;9.766;2023-12-28T14:52:44;6.80;99.90
21261;DHT22;10788;47.930;9.766;2023-12-28T14:55:10;6.80;99.90
21261;DHT22;10788;47.930;9.766;2023-12-28T14:57:36;6.80;99.90
21261;DHT22;10788;47.930;9.766;2023-12-28T15:00:01;6.80;99.90
21261;DHT22;10788;47.930;9.766;2023-12-28T15:02:27;6.80;99.90
21261;DHT22;10788;47.930;9.766;2023-12-28T15:04:52;6.80;99.90
21261;DHT22;10788;47.930;9.766;2023-12-28T15:07:18;6.80;99.90
21261;DHT22;10788;47.930;9.766;2023-12-28T15:09:45;6.80;99.90
21261;DHT22;10788;47.930;9.766;2023-12-28T15:12:10;6.80;99.90
21261;DHT22;10788;47.930;9.766;2023-12-28T15:14:36;6.90;99.90
21261;DHT22;10788;47.930;9.766;2023-12-28T15:17:03;6.90;99.90
21261;DHT22;10788;47.930;9.766;2023-12-28T15:19:30;6.90;99.90
21261;DHT22;10788;47.930;9.766;2023-12-28T15:21:56;6.90;99.90
21261;DHT22;10788;47.930;9.766;2023-12-28T15:24:22;6.90;99.90
21261;DHT22;10788;47.930;9.766;2023-12-28T15:26:48;6.90;99.90
21261;DHT22;10788;47.930;9.766;2023-12-28T15:29:13;6.90;99.90
21261;DHT22;10788;47.930;9.766;2023-12-28T15:31:41;6.90;99.90
21261;DHT22;10788;47.930;9.766;2023-12-28T15:34:06;7.00;99.90
21261;DHT22;10788;47.930;9.766;2023-12-28T15:36:32;6.90;99.90
21261;DHT22;10788;47.930;9.766;2023-12-28T15:38:58;6.90;99.90
21261;DHT22;10788;47.930;9.766;2023-12-28T15:41:24;6.90;99.90
21261;DHT22;10788;47.930;9.766;2023-12-28T15:43:50;6.90;99.90